Terminal Aerodrome Forecast
Issued by NWS

Home | Current Version | Previous Version | Text Only | Print | Product List | Glossary On
Versions: 1 2 3 4 5 6 7 8 9 10 11 12 13 14 15 16 17 18 19 20 21 22 23 24
802
FTUS45 KSLC 192333
TAFOGD
TAF
KOGD 192333Z 2000/2024 34005KT P6SM SCT100
     FM200200 17011KT P6SM SCT130
     FM200500 17012G20KT P6SM SCT150
     FM201300 18015G27KT P6SM FEW050 BKN100
     FM201700 28018G26KT P6SM SCT050 OVC080
     FM202000 33012KT P6SM -RA SCT025 OVC050=

USA.gov is the U.S. government's official web portal to all federal, state and local government web resources and services.